createdAt,value
2023-05-17T00:00:59.697Z,14.61
2023-05-17T00:03:29.752Z,13.20
2023-05-17T00:05:58.495Z,14.32
2023-05-17T00:08:27.183Z,14.61
2023-05-17T00:10:55.904Z,15.10
2023-05-17T00:13:24.666Z,14.25
2023-05-17T00:15:53.344Z,13.79
2023-05-17T00:18:23.572Z,14.63
2023-05-17T00:20:52.363Z,14.98
2023-05-17T00:23:22.674Z,15.09
2023-05-17T00:25:51.460Z,14.03
2023-05-17T00:28:20.271Z,13.96
2023-05-17T00:30:49.162Z,13.91
2023-05-17T00:33:17.916Z,14.64
2023-05-17T00:35:48.050Z,14.79
2023-05-17T00:38:16.787Z,13.53
2023-05-17T00:40:45.491Z,14.27
2023-05-17T00:43:14.250Z,14.72
2023-05-17T00:45:43.034Z,14.63
2023-05-17T00:48:12.004Z,14.43
2023-05-17T00:50:41.160Z,14.27
2023-05-17T00:53:16.262Z,14.47
2023-05-17T00:55:45.563Z,14.63
2023-05-17T00:58:15.082Z,14.93
2023-05-17T01:00:44.313Z,15.08
2023-05-17T01:03:13.297Z,15.08
2023-05-17T01:05:42.366Z,14.44
2023-05-17T01:08:12.524Z,14.63
2023-05-17T01:10:51.031Z,14.30
2023-05-17T01:13:25.697Z,14.31
2023-05-17T01:16:07.415Z,14.59
2023-05-17T01:18:42.595Z,14.64
2023-05-17T01:21:31.937Z,14.02
2023-05-17T01:24:25.532Z,14.04
2023-05-17T01:26:56.379Z,14.49
2023-05-17T01:29:27.716Z,14.56
2023-05-17T01:31:57.641Z,14.63
2023-05-17T01:34:27.475Z,14.96
2023-05-17T01:36:57.664Z,14.94
2023-05-17T01:39:26.824Z,14.98
2023-05-17T01:42:06.384Z,14.52
2023-05-17T01:44:39.712Z,14.79
2023-05-17T01:47:14.860Z,14.81
2023-05-17T01:49:46.247Z,14.80
2023-05-17T01:52:20.624Z,14.71
2023-05-17T01:54:52.638Z,14.82
2023-05-17T01:57:30.741Z,14.82
2023-05-17T02:00:03.578Z,14.53
2023-05-17T02:02:32.494Z,14.65
2023-05-17T02:05:01.582Z,14.70
2023-05-17T02:07:31.084Z,14.71
2023-05-17T02:09:59.883Z,14.69
2023-05-17T02:12:30.110Z,14.67
2023-05-17T02:14:58.850Z,14.61
2023-05-17T02:17:27.606Z,14.61
2023-05-17T02:19:56.365Z,14.60
2023-05-17T02:22:25.184Z,14.58
2023-05-17T02:24:53.945Z,14.58
2023-05-17T02:27:22.731Z,14.61
2023-05-17T02:29:53.107Z,14.58
2023-05-17T02:32:21.825Z,14.65
2023-05-17T02:34:52.124Z,14.60
2023-05-17T02:37:20.841Z,14.53
2023-05-17T02:39:50.750Z,14.53
2023-05-17T02:42:19.678Z,14.60
2023-05-17T02:44:53.002Z,14.35
2023-05-17T02:47:24.709Z,14.47
2023-05-17T02:49:53.586Z,14.55
2023-05-17T02:52:22.330Z,14.56
2023-05-17T02:54:51.702Z,14.12
2023-05-17T02:57:20.794Z,14.03
2023-05-17T02:59:49.666Z,14.31
2023-05-17T03:02:18.688Z,14.06
2023-05-17T03:04:49.035Z,13.90
2023-05-17T03:07:17.805Z,14.20
2023-05-17T03:09:46.465Z,14.42
2023-05-17T03:12:15.190Z,14.46
2023-05-17T03:14:43.890Z,14.05
2023-05-17T03:17:12.631Z,14.34
2023-05-17T03:19:41.623Z,14.36
2023-05-17T03:22:11.999Z,14.38
2023-05-17T03:24:41.090Z,14.36
2023-05-17T03:27:10.127Z,14.07
2023-05-17T03:29:39.360Z,13.64
2023-05-17T03:32:09.941Z,14.02
2023-05-17T03:34:39.110Z,14.23
2023-05-17T03:37:08.738Z,14.49
2023-05-17T03:39:40.786Z,14.37
2023-05-17T03:42:10.404Z,14.18
2023-05-17T03:44:41.865Z,14.58
2023-05-17T03:47:11.775Z,14.56
2023-05-17T03:49:40.852Z,13.35
2023-05-17T03:52:11.521Z,14.04
2023-05-17T03:54:42.017Z,13.19
2023-05-17T03:57:11.057Z,13.77
2023-05-17T03:59:41.209Z,14.37
2023-05-17T04:02:10.964Z,14.55
2023-05-17T04:04:44.084Z,14.15
2023-05-17T04:07:13.753Z,13.70
2023-05-17T04:09:43.961Z,13.53
2023-05-17T04:12:12.812Z,13.94
2023-05-17T04:14:42.095Z,13.76
2023-05-17T04:17:11.410Z,13.96
2023-05-17T04:19:40.593Z,13.34
2023-05-17T04:22:09.909Z,13.93
2023-05-17T04:24:39.189Z,14.13
2023-05-17T04:27:09.978Z,13.98
2023-05-17T04:29:41.012Z,12.61
2023-05-17T04:32:11.314Z,13.33
2023-05-17T04:34:40.247Z,12.92
2023-05-17T04:37:09.242Z,12.53
2023-05-17T04:39:38.167Z,13.00
2023-05-17T04:42:09.409Z,13.46
2023-05-17T04:44:38.770Z,13.40
2023-05-17T04:47:08.240Z,11.63
2023-05-17T04:49:37.481Z,11.22
2023-05-17T04:52:06.866Z,12.17
2023-05-17T04:54:35.888Z,12.59
2023-05-17T04:57:05.377Z,14.36
2023-05-17T04:59:35.679Z,12.88
2023-05-17T05:02:05.314Z,13.42
2023-05-17T05:04:35.102Z,14.43
2023-05-17T05:07:03.732Z,15.03
2023-05-17T05:09:32.293Z,14.27
2023-05-17T05:12:00.842Z,13.23
2023-05-17T05:14:29.750Z,12.30
2023-05-17T05:16:59.648Z,12.38
2023-05-17T05:19:28.235Z,12.14
2023-05-17T05:21:56.806Z,12.61
2023-05-17T05:24:25.361Z,14.25
2023-05-17T05:26:53.968Z,13.14
2023-05-17T05:29:23.683Z,12.27
2023-05-17T05:31:52.354Z,14.71
2023-05-17T05:34:22.300Z,13.82
2023-05-17T05:36:50.953Z,14.07
2023-05-17T05:39:19.728Z,14.71
2023-05-17T05:41:48.326Z,13.12
2023-05-17T05:44:16.851Z,14.94
2023-05-17T05:46:45.412Z,12.88
2023-05-17T05:49:13.949Z,14.25
2023-05-17T05:51:44.026Z,12.98
2023-05-17T05:54:12.572Z,12.07
2023-05-17T05:56:41.215Z,13.14
2023-05-17T05:59:09.885Z,12.08
2023-05-17T06:01:38.615Z,12.09
2023-05-17T06:04:07.347Z,13.86
2023-05-17T06:06:37.134Z,13.80
2023-05-17T06:09:07.812Z,13.70
2023-05-17T06:11:36.398Z,15.00
2023-05-17T06:14:04.990Z,15.10
2023-05-17T06:16:33.587Z,14.02
2023-05-17T06:19:02.266Z,13.74
2023-05-17T06:21:31.108Z,13.54
2023-05-17T06:23:59.782Z,15.36
2023-05-17T06:26:29.655Z,13.89
2023-05-17T06:28:58.186Z,16.49
2023-05-17T06:31:26.967Z,14.64
2023-05-17T06:33:55.542Z,14.78
2023-05-17T06:36:25.418Z,14.43
2023-05-17T06:38:54.123Z,13.30
2023-05-17T06:41:22.673Z,13.81
2023-05-17T06:43:52.565Z,13.91
2023-05-17T06:46:21.111Z,13.84
2023-05-17T06:48:51.230Z,15.21
2023-05-17T06:51:20.123Z,14.76
2023-05-17T06:53:48.695Z,16.29
2023-05-17T06:56:17.353Z,16.99
2023-05-17T06:58:46.050Z,14.88
2023-05-17T07:01:16.973Z,12.65
2023-05-17T07:03:45.695Z,14.00
2023-05-17T07:06:14.368Z,12.93
2023-05-17T07:08:42.946Z,12.66
2023-05-17T07:11:11.555Z,14.22
2023-05-17T07:13:40.311Z,14.03
2023-05-17T07:16:09.770Z,15.32
2023-05-17T07:18:39.753Z,12.56
2023-05-17T07:21:08.558Z,13.25
2023-05-17T07:23:37.117Z,13.91
2023-05-17T07:26:06.037Z,14.96
2023-05-17T07:28:34.604Z,14.65
2023-05-17T07:31:03.474Z,15.58
2023-05-17T07:33:32.191Z,15.33
2023-05-17T07:36:02.128Z,14.20
2023-05-17T07:38:30.746Z,14.15
2023-05-17T07:40:59.354Z,15.64
2023-05-17T07:43:28.091Z,15.28
2023-05-17T07:45:56.663Z,13.35
2023-05-17T07:48:25.315Z,13.74
2023-05-17T07:50:54.783Z,12.79
2023-05-17T07:53:27.458Z,13.79
2023-05-17T07:55:55.990Z,12.94
2023-05-17T07:58:24.597Z,14.64
2023-05-17T08:00:53.304Z,14.98
2023-05-17T08:03:22.637Z,14.56
2023-05-17T08:05:51.264Z,15.56
2023-05-17T08:08:21.166Z,15.83
2023-05-17T08:10:51.193Z,17.33
2023-05-17T08:13:19.819Z,16.25
2023-05-17T08:15:50.059Z,15.83
2023-05-17T08:18:20.193Z,15.65
2023-05-17T08:20:53.005Z,14.75
2023-05-17T08:23:21.586Z,15.11
2023-05-17T08:25:51.500Z,15.69
2023-05-17T08:28:23.002Z,15.28
2023-05-17T08:30:53.693Z,14.15
2023-05-17T08:33:23.481Z,14.46
2023-05-17T08:35:52.931Z,16.85
2023-05-17T08:38:21.468Z,17.22
2023-05-17T08:40:56.200Z,17.87
2023-05-17T08:43:27.794Z,14.79
2023-05-17T08:45:58.220Z,15.24
2023-05-17T08:48:27.631Z,17.08
2023-05-17T08:50:58.480Z,15.04
2023-05-17T08:53:27.404Z,15.63
2023-05-17T08:56:02.467Z,15.21
2023-05-17T08:58:48.033Z,15.33
2023-05-17T09:01:26.356Z,15.25
2023-05-17T09:03:55.777Z,13.51
2023-05-17T09:06:25.455Z,13.77
2023-05-17T09:08:55.797Z,15.34
2023-05-17T09:11:30.243Z,15.54
2023-05-17T09:14:01.579Z,14.97
2023-05-17T09:16:31.344Z,16.81
2023-05-17T09:19:01.408Z,16.34
2023-05-17T09:21:31.813Z,18.05
2023-05-17T09:26:45.598Z,17.09
2023-05-17T09:29:15.587Z,16.01
2023-05-17T09:31:45.554Z,15.83
2023-05-17T09:34:14.181Z,15.30
2023-05-17T09:36:44.774Z,16.57
2023-05-17T09:39:15.241Z,14.57
2023-05-17T09:41:47.655Z,14.58
2023-05-17T09:44:17.616Z,15.32
2023-05-17T09:46:48.102Z,14.87
2023-05-17T09:49:18.153Z,15.83
2023-05-17T09:51:48.638Z,17.57
2023-05-17T09:54:17.742Z,18.96
2023-05-17T09:56:55.784Z,17.05
2023-05-17T09:59:28.694Z,15.40
2023-05-17T10:01:58.064Z,16.45
2023-05-17T10:04:31.908Z,16.29
2023-05-17T10:07:01.310Z,16.11
2023-05-17T10:09:35.007Z,15.83
2023-05-17T10:12:08.071Z,15.91
2023-05-17T10:14:37.692Z,14.61
2023-05-17T10:17:09.123Z,15.91
2023-05-17T10:19:38.463Z,16.39
2023-05-17T10:22:21.824Z,15.10
2023-05-17T10:24:52.923Z,14.64
2023-05-17T10:27:23.043Z,16.29
2023-05-17T10:29:53.114Z,16.95
2023-05-17T10:32:27.137Z,17.72
2023-05-17T10:35:06.567Z,17.29
2023-05-17T10:37:38.904Z,18.16
2023-05-17T10:40:13.159Z,15.62
2023-05-17T10:42:46.290Z,18.02
2023-05-17T10:45:15.326Z,19.11
2023-05-17T10:47:46.265Z,18.48
2023-05-17T10:50:15.570Z,19.12
2023-05-17T10:52:51.624Z,18.07
2023-05-17T10:55:21.873Z,17.40
2023-05-17T10:58:17.599Z,17.27
2023-05-17T11:00:48.174Z,18.25
2023-05-17T11:03:18.818Z,17.28
2023-05-17T11:06:23.655Z,18.31
2023-05-17T11:09:16.043Z,17.87
2023-05-17T11:12:06.201Z,17.06
2023-05-17T11:14:54.725Z,17.90
2023-05-17T11:17:26.065Z,17.60
2023-05-17T11:20:11.597Z,17.93
2023-05-17T11:22:44.125Z,17.50
2023-05-17T11:25:14.268Z,18.06
2023-05-17T11:27:47.849Z,18.21
2023-05-17T11:30:24.495Z,17.81
2023-05-17T11:32:55.042Z,18.03
2023-05-17T11:35:27.644Z,18.64
2023-05-17T11:38:14.587Z,18.47
2023-05-17T11:40:43.817Z,17.84
2023-05-17T11:43:13.947Z,17.60
2023-05-17T11:45:50.646Z,17.51
2023-05-17T11:48:24.279Z,16.41
2023-05-17T11:50:55.226Z,17.05
2023-05-17T11:53:25.469Z,18.04
2023-05-17T11:55:54.489Z,17.57
2023-05-17T11:58:27.009Z,16.06
2023-05-17T12:00:59.000Z,16.20
2023-05-17T12:03:29.061Z,16.77
2023-05-17T12:06:05.491Z,18.38
2023-05-17T12:08:35.397Z,18.18
2023-05-17T12:11:04.840Z,18.03
2023-05-17T12:13:35.243Z,16.67
2023-05-17T12:16:09.814Z,18.12
2023-05-17T12:18:39.301Z,17.77
2023-05-17T12:21:09.298Z,18.18
2023-05-17T12:23:39.786Z,17.93
2023-05-17T12:26:10.288Z,18.06
2023-05-17T12:28:41.240Z,18.38
2023-05-17T12:31:13.249Z,18.39
2023-05-17T12:33:43.894Z,18.02
2023-05-17T12:36:13.886Z,18.75
2023-05-17T12:38:44.554Z,18.66
2023-05-17T12:41:15.151Z,18.76
2023-05-17T12:43:46.917Z,18.26
2023-05-17T12:46:18.972Z,17.56
2023-05-17T12:48:48.975Z,17.63
2023-05-17T12:51:18.961Z,16.52
2023-05-17T12:53:51.771Z,16.78
2023-05-17T12:56:22.439Z,17.09
2023-05-17T12:59:06.588Z,17.96
2023-05-17T13:01:37.271Z,16.32
2023-05-17T13:04:06.655Z,16.56
2023-05-17T13:06:51.723Z,17.61
2023-05-17T13:09:22.047Z,16.19
2023-05-17T13:11:54.784Z,17.93
2023-05-17T13:14:37.289Z,16.78
2023-05-17T13:17:10.864Z,16.38
2023-05-17T13:19:40.266Z,17.44
2023-05-17T13:22:09.875Z,16.49
2023-05-17T13:24:40.060Z,15.27
2023-05-17T13:27:09.701Z,15.37
2023-05-17T13:29:41.651Z,16.10
2023-05-17T13:32:13.816Z,16.83
2023-05-17T13:34:42.675Z,16.13
2023-05-17T13:37:12.764Z,16.17
2023-05-17T13:39:42.238Z,17.53
2023-05-17T13:42:11.155Z,18.15
2023-05-17T13:44:39.887Z,15.99
2023-05-17T13:47:09.913Z,17.07
2023-05-17T13:49:38.496Z,16.53
2023-05-17T13:52:08.945Z,17.38
2023-05-17T13:54:38.138Z,17.25
2023-05-17T13:57:07.923Z,16.84
2023-05-17T13:59:36.664Z,16.35
2023-05-17T14:02:05.316Z,16.68
2023-05-17T14:04:35.231Z,17.20
2023-05-17T14:07:04.461Z,17.73
2023-05-17T14:09:35.445Z,16.62
2023-05-17T14:12:05.611Z,17.16
2023-05-17T14:14:34.246Z,16.98
2023-05-17T14:17:02.809Z,16.94
2023-05-17T14:19:31.779Z,17.75
2023-05-17T14:22:01.894Z,16.58
2023-05-17T14:24:30.523Z,16.65
2023-05-17T14:26:59.071Z,16.76
2023-05-17T14:29:27.747Z,17.31
2023-05-17T14:31:56.283Z,17.32
2023-05-17T14:34:25.007Z,17.42
2023-05-17T14:36:54.584Z,17.59
2023-05-17T14:39:24.508Z,17.68
2023-05-17T14:41:53.072Z,16.96
2023-05-17T14:44:21.657Z,16.88
2023-05-17T14:46:50.221Z,16.34
2023-05-17T14:49:18.883Z,17.22
2023-05-17T14:51:47.533Z,17.66
2023-05-17T14:54:16.789Z,17.17
2023-05-17T14:56:47.237Z,16.83
2023-05-17T14:59:16.158Z,17.71
2023-05-17T15:01:44.729Z,17.94
2023-05-17T15:04:13.370Z,17.07
2023-05-17T15:06:42.761Z,17.63
2023-05-17T15:09:13.241Z,18.40
2023-05-17T15:11:42.068Z,16.12
2023-05-17T15:14:11.981Z,16.18
2023-05-17T15:16:40.682Z,15.61
2023-05-17T15:19:09.822Z,16.18
2023-05-17T15:21:38.513Z,16.15
2023-05-17T15:24:08.027Z,16.95
2023-05-17T15:26:36.630Z,16.01
2023-05-17T15:29:05.397Z,16.36
2023-05-17T15:31:35.500Z,16.84
2023-05-17T15:34:04.827Z,16.45
2023-05-17T15:36:34.616Z,16.05
2023-05-17T15:39:03.249Z,16.59
2023-05-17T15:41:32.976Z,16.22
2023-05-17T15:44:01.833Z,16.00
2023-05-17T15:46:30.468Z,15.38
2023-05-17T15:49:00.637Z,15.57
2023-05-17T15:51:29.241Z,16.17
2023-05-17T15:53:57.902Z,15.94
2023-05-17T15:56:27.179Z,16.00
2023-05-17T15:58:55.852Z,16.03
2023-05-17T16:01:24.448Z,16.37
2023-05-17T16:03:53.037Z,16.19
2023-05-17T16:06:23.089Z,16.01
2023-05-17T16:08:51.723Z,16.17
2023-05-17T16:11:20.272Z,16.44
2023-05-17T16:13:48.825Z,16.18
2023-05-17T16:16:17.352Z,16.24
2023-05-17T16:18:46.054Z,15.81
2023-05-17T16:21:14.687Z,16.49
2023-05-17T16:23:44.611Z,16.03
2023-05-17T16:26:13.225Z,16.50
2023-05-17T16:28:41.929Z,15.74
2023-05-17T16:31:10.554Z,15.79
2023-05-17T16:33:40.253Z,15.73
2023-05-17T16:36:09.864Z,16.10
2023-05-17T16:38:38.425Z,15.94
2023-05-17T16:41:08.782Z,16.15
2023-05-17T16:43:37.344Z,16.29
2023-05-17T16:46:05.972Z,15.82
2023-05-17T16:48:34.535Z,15.25
2023-05-17T16:51:03.127Z,16.10
2023-05-17T16:53:31.662Z,16.14
2023-05-17T16:56:00.231Z,15.69
2023-05-17T16:58:30.131Z,14.90
2023-05-17T17:00:58.721Z,15.13
2023-05-17T17:03:27.331Z,15.06
2023-05-17T17:05:55.934Z,15.49
2023-05-17T17:08:24.468Z,15.32
2023-05-17T17:10:53.025Z,15.58
2023-05-17T17:13:21.747Z,15.83
2023-05-17T17:15:52.555Z,16.24
2023-05-17T17:18:21.336Z,16.49
2023-05-17T17:20:50.751Z,16.11
2023-05-17T17:23:21.056Z,16.32
2023-05-17T17:25:50.644Z,15.29
2023-05-17T17:28:19.991Z,15.15
2023-05-17T17:30:51.635Z,15.79
2023-05-17T17:33:20.509Z,15.37
2023-05-17T17:35:49.856Z,15.22
2023-05-17T17:38:19.085Z,15.43
2023-05-17T17:40:48.166Z,15.06
2023-05-17T17:43:18.614Z,15.26
2023-05-17T17:45:48.146Z,15.36
2023-05-17T17:48:18.814Z,14.82
2023-05-17T17:50:47.865Z,15.11
2023-05-17T17:53:17.753Z,14.94
2023-05-17T17:55:47.063Z,14.37
2023-05-17T17:58:16.392Z,15.06
2023-05-17T18:00:45.953Z,15.26
2023-05-17T18:03:14.782Z,15.66
2023-05-17T18:05:46.244Z,15.16
2023-05-17T18:08:15.193Z,14.87
2023-05-17T18:10:44.139Z,14.32
2023-05-17T18:13:13.115Z,14.90
2023-05-17T18:15:42.667Z,13.87
2023-05-17T18:18:11.520Z,14.62
2023-05-17T18:20:41.937Z,14.84
2023-05-17T18:23:12.564Z,14.46
2023-05-17T18:25:41.617Z,14.71
2023-05-17T18:28:11.305Z,14.82
2023-05-17T18:30:42.494Z,14.84
2023-05-17T18:33:11.448Z,14.70
2023-05-17T18:35:40.480Z,14.66
2023-05-17T18:38:09.544Z,14.09
2023-05-17T18:40:42.438Z,14.58
2023-05-17T18:43:12.560Z,14.26
2023-05-17T18:45:46.855Z,14.50
2023-05-17T18:48:19.249Z,14.59
2023-05-17T18:50:48.072Z,14.36
2023-05-17T18:53:17.247Z,14.42
2023-05-17T18:55:50.823Z,13.58
2023-05-17T18:58:22.890Z,13.55
2023-05-17T19:00:52.549Z,14.00
2023-05-17T19:03:21.754Z,14.03
2023-05-17T19:05:51.040Z,13.47
2023-05-17T19:08:25.925Z,14.36
2023-05-17T19:10:56.727Z,14.37
2023-05-17T19:13:29.189Z,13.49
2023-05-17T19:15:59.644Z,13.84
2023-05-17T19:18:30.321Z,13.20
2023-05-17T19:20:59.216Z,14.07
2023-05-17T19:23:29.272Z,14.08
2023-05-17T19:25:59.695Z,14.20
2023-05-17T19:28:31.486Z,13.88
2023-05-17T19:31:00.645Z,13.31
2023-05-17T19:33:32.128Z,12.74
2023-05-17T19:36:01.123Z,13.21
2023-05-17T19:38:30.425Z,13.34
2023-05-17T19:41:01.393Z,13.13
2023-05-17T19:43:30.317Z,13.73
2023-05-17T19:45:59.783Z,13.76
2023-05-17T19:48:30.455Z,14.66
2023-05-17T19:51:00.956Z,14.05
2023-05-17T19:53:40.181Z,14.53
2023-05-17T19:56:11.041Z,14.68
2023-05-17T19:58:43.404Z,14.05
2023-05-17T20:01:13.095Z,13.95
2023-05-17T20:03:42.928Z,14.60
2023-05-17T20:06:15.122Z,14.90
2023-05-17T20:08:45.542Z,13.52
2023-05-17T20:11:17.360Z,13.33
2023-05-17T20:13:49.554Z,14.49
2023-05-17T20:16:19.043Z,14.43
2023-05-17T20:18:48.610Z,14.36
2023-05-17T20:21:20.801Z,14.50
2023-05-17T20:23:51.622Z,13.46
2023-05-17T20:26:26.040Z,13.77
2023-05-17T20:28:55.566Z,12.89
2023-05-17T20:31:24.511Z,12.85
2023-05-17T20:33:53.366Z,13.06
2023-05-17T20:36:22.180Z,13.78
2023-05-17T20:38:51.267Z,14.11
2023-05-17T20:41:22.031Z,15.34
2023-05-17T20:43:54.086Z,15.29
2023-05-17T20:46:24.387Z,14.06
2023-05-17T20:48:56.901Z,14.66
2023-05-17T20:51:27.094Z,14.10
2023-05-17T20:53:57.066Z,13.38
2023-05-17T20:56:27.643Z,13.48
2023-05-17T20:58:56.373Z,13.42
2023-05-17T21:01:25.673Z,13.77
2023-05-17T21:03:54.774Z,13.97
2023-05-17T21:06:27.260Z,14.37
2023-05-17T21:08:58.654Z,13.02
2023-05-17T21:11:29.602Z,12.54
2023-05-17T21:13:59.922Z,13.12
2023-05-17T21:16:29.182Z,12.93
2023-05-17T21:18:58.341Z,12.87
2023-05-17T21:21:27.177Z,13.66
2023-05-17T21:23:56.508Z,13.96
2023-05-17T21:28:58.040Z,13.78
2023-05-17T21:31:28.545Z,13.15
2023-05-17T21:33:59.919Z,12.57
2023-05-17T21:36:29.613Z,12.73
2023-05-17T21:38:59.967Z,11.67
2023-05-17T21:41:29.055Z,11.32
2023-05-17T21:43:59.480Z,12.59
2023-05-17T21:46:28.715Z,12.29
2023-05-17T21:49:01.898Z,10.90
2023-05-17T21:51:33.987Z,11.25
2023-05-17T21:54:03.157Z,12.52
2023-05-17T21:56:32.409Z,12.71
2023-05-17T21:59:02.783Z,12.34
2023-05-17T22:01:33.416Z,13.52
2023-05-17T22:04:02.633Z,13.95
2023-05-17T22:06:31.718Z,14.67
2023-05-17T22:09:00.685Z,13.72
2023-05-17T22:11:30.857Z,14.23
2023-05-17T22:13:59.546Z,14.09
2023-05-17T22:16:33.172Z,15.00
2023-05-17T22:19:02.759Z,14.96
2023-05-17T22:21:32.380Z,13.58
2023-05-17T22:24:01.921Z,14.97
2023-05-17T22:26:31.330Z,15.00
2023-05-17T22:29:01.069Z,13.96
2023-05-17T22:31:34.841Z,13.43
2023-05-17T22:34:04.062Z,13.88
2023-05-17T22:36:34.727Z,13.19
2023-05-17T22:39:03.842Z,12.36
2023-05-17T22:41:32.847Z,12.24
2023-05-17T22:44:01.928Z,13.50
2023-05-17T22:46:34.253Z,12.01
2023-05-17T22:49:03.334Z,13.37
2023-05-17T22:51:35.623Z,12.24
2023-05-17T22:54:04.709Z,11.67
2023-05-17T22:56:35.133Z,11.05
2023-05-17T22:59:03.951Z,11.64
2023-05-17T23:01:34.838Z,12.58
2023-05-17T23:04:04.339Z,11.92
2023-05-17T23:06:34.684Z,11.00
2023-05-17T23:09:05.276Z,11.54
2023-05-17T23:11:35.447Z,11.72
2023-05-17T23:14:04.410Z,11.41
2023-05-17T23:16:36.203Z,12.38
2023-05-17T23:19:05.450Z,13.38
2023-05-17T23:21:36.000Z,11.98
2023-05-17T23:24:05.160Z,9.91
2023-05-17T23:26:34.413Z,10.45
2023-05-17T23:29:05.606Z,10.40
2023-05-17T23:31:37.602Z,11.66
2023-05-17T23:34:07.618Z,11.95
2023-05-17T23:36:36.588Z,11.66
2023-05-17T23:39:06.908Z,10.81
2023-05-17T23:41:38.096Z,11.49
2023-05-17T23:44:09.019Z,11.65
2023-05-17T23:46:39.545Z,13.55
2023-05-17T23:49:08.663Z,13.07
2023-05-17T23:51:37.643Z,13.75
2023-05-17T23:54:06.869Z,13.37
2023-05-17T23:56:35.682Z,13.27
2023-05-17T23:59:04.824Z,13.98
